Columbia, Alabama
Current Conditions -  °F | °C
As of 7:35 AM on Saturday 20 Dec 2014 (Local Time) from KBIJ Reporting Station
Moderate Rain Moderate Rain  
Wind Chill: 50°   Ceiling: 5000
Heat Index: 50°   Visibility: 4mi
Dew Point: 50°   Wind: 3mph
Humidity: 100%   Direction: 80°E
Pressure: 30.19"   Gusts: NA
Location:  31.29°N, 85.11°W
Report Text: KBIJ 201335Z AUTO 08003KT 4SM RA SCT028 SCT037 OVC050 10/10 A3019 RMK AO2
Loading
Personal Weather Stations






























Interactive Weather Map New forecast layout! Learn more

10-Day Weather Forecast

Advertisements
Track Severe Weather on mobile